Time;durP1;ratioP1;P1;durP2;ratioP2;P2;SDS_P1;SDS_P2;PMS_P1;PMS_P2;Temp;Humidity;BMP_temperature;BMP_pressure;BME280_temperature;BME280_humidity;BME280_pressure;Samples;Min_cycle;Max_cycle;Signal;HPM_P1;HPM_P2
2022/12/13 00:01:28;;;;;;;72.65;34.40;;;-5.00;99.90;;;;;;6213191;23;20012;-88
2022/12/13 00:03:56;;;;;;;62.45;32.10;;;-5.00;99.90;;;;;;6214175;23;20029;-89
2022/12/13 00:06:22;;;;;;;75.40;33.97;;;-4.90;99.90;;;;;;6212827;23;20024;-89
2022/12/13 00:08:47;;;;;;;63.75;32.28;;;-4.20;99.90;;;;;;6212892;23;20024;-89
2022/12/13 00:11:14;;;;;;;64.28;33.08;;;-5.00;99.90;;;;;;6213319;23;20012;-89
2022/12/13 00:13:40;;;;;;;68.38;33.40;;;-5.00;99.90;;;;;;6214470;23;20044;-89
2022/12/13 00:16:10;;;;;;;72.82;31.98;;;-5.00;99.90;;;;;;6212303;23;20023;-88
2022/12/13 00:18:36;;;;;;;63.90;31.40;;;-5.10;99.90;;;;;;6214249;23;20024;-89
2022/12/13 00:21:07;;;;;;;68.32;34.50;;;-5.10;99.90;;;;;;6212577;23;20324;-88
2022/12/13 00:23:33;;;;;;;74.88;34.80;;;-5.20;99.90;;;;;;6213589;23;20032;-88
2022/12/13 00:26:04;;;;;;;68.07;32.88;;;-5.20;99.90;;;;;;6212704;23;20008;-88
2022/12/13 00:28:30;;;;;;;64.57;31.77;;;-5.20;99.90;;;;;;6214449;23;20095;-88
2022/12/13 00:30:57;;;;;;;68.25;33.90;;;-5.20;99.90;;;;;;6188145;23;20047;-88
2022/12/13 00:33:23;;;;;;;68.32;33.05;;;-5.20;99.90;;;;;;6214543;23;20051;-88
2022/12/13 00:35:48;;;;;;;66.90;34.20;;;-5.20;99.90;;;;;;6212681;23;20016;-88
2022/12/13 00:38:14;;;;;;;67.57;32.53;;;-5.20;99.90;;;;;;6211714;23;20023;-88
2022/12/13 00:40:40;;;;;;;74.93;34.10;;;-4.10;99.90;;;;;;6213748;23;20016;-88
2022/12/13 00:43:05;;;;;;;66.20;33.83;;;-5.20;99.90;;;;;;6213269;23;20099;-89
2022/12/13 00:45:32;;;;;;;76.30;34.88;;;-5.20;99.90;;;;;;6213028;23;20087;-88
2022/12/13 00:47:58;;;;;;;69.38;33.45;;;-5.20;99.90;;;;;;6213440;23;20056;-87
2022/12/13 00:50:24;;;;;;;71.50;35.58;;;-5.20;99.90;;;;;;6212439;23;20086;-88
2022/12/13 00:52:49;;;;;;;76.90;35.42;;;-5.20;99.90;;;;;;6212359;23;20043;-88
2022/12/13 00:55:15;;;;;;;64.95;32.95;;;-5.20;99.90;;;;;;6188371;23;20016;-88
2022/12/13 00:57:41;;;;;;;70.97;33.05;;;-5.20;99.90;;;;;;6212952;23;20385;-89
2022/12/13 01:00:07;;;;;;;74.07;32.72;;;-5.20;99.90;;;;;;6188041;23;20404;-89
2022/12/13 01:02:34;;;;;;;67.20;31.95;;;-5.20;99.90;;;;;;6188407;23;20019;-89
2022/12/13 01:04:59;;;;;;;62.33;32.90;;;-5.20;99.90;;;;;;6211635;23;20019;-88
2022/12/13 01:07:25;;;;;;;69.22;32.22;;;-5.20;99.90;;;;;;6212640;23;20016;-88
2022/12/13 01:09:51;;;;;;;57.95;29.73;;;-5.20;99.90;;;;;;6188330;23;20387;-88
2022/12/13 01:12:17;;;;;;;60.28;31.40;;;-5.30;99.90;;;;;;6212346;23;20023;-87
2022/12/13 01:14:43;;;;;;;61.42;30.15;;;-5.30;99.90;;;;;;6188188;23;20472;-87
2022/12/13 01:17:09;;;;;;;59.45;28.65;;;-4.30;99.90;;;;;;6213483;23;20017;-88
2022/12/13 01:19:35;;;;;;;65.88;31.65;;;-5.40;99.90;;;;;;6186479;23;20372;-87
2022/12/13 01:22:04;;;;;;;64.35;33.08;;;-4.50;99.90;;;;;;6188030;23;20027;-88
2022/12/13 01:24:30;;;;;;;58.92;30.30;;;-5.50;99.90;;;;;;6213218;23;20016;-88
2022/12/13 01:26:57;;;;;;;60.38;30.98;;;-5.50;99.90;;;;;;6212628;23;20012;-88
2022/12/13 01:29:24;;;;;;;60.13;30.23;;;-5.50;99.90;;;;;;6188492;23;20039;-88
2022/12/13 01:31:50;;;;;;;66.50;31.33;;;-5.60;99.90;;;;;;6212385;23;20012;-88
2022/12/13 01:34:18;;;;;;;60.92;29.33;;;-5.50;99.90;;;;;;6186238;23;20065;-88
2022/12/13 01:36:46;;;;;;;66.53;32.60;;;-5.50;99.90;;;;;;6187729;23;20016;-89
2022/12/13 01:39:14;;;;;;;66.82;31.90;;;-5.50;99.90;;;;;;6213624;23;20047;-87
2022/12/13 01:41:41;;;;;;;62.75;30.83;;;-5.40;99.90;;;;;;6189261;23;20643;-87
2022/12/13 01:44:45;;;;;;;67.57;31.15;;;-5.50;99.90;;;;;;6189832;23;20027;-87
2022/12/13 01:47:14;;;;;;;62.75;31.00;;;-5.40;99.90;;;;;;6188170;23;20100;-88
2022/12/13 01:49:40;;;;;;;59.05;30.48;;;-5.40;99.90;;;;;;6189507;23;20391;-88
2022/12/13 01:52:09;;;;;;;60.88;31.80;;;-5.50;99.90;;;;;;6189210;23;20106;-87
2022/12/13 01:54:43;;;;;;;66.55;32.78;;;-5.50;99.90;;;;;;6214445;23;20027;-88
2022/12/13 01:57:11;;;;;;;72.38;34.47;;;-5.50;99.90;;;;;;6189737;23;20020;-87
2022/12/13 01:59:40;;;;;;;63.47;32.88;;;-5.50;99.90;;;;;;6189933;23;20486;-88
2022/12/13 02:02:08;;;;;;;68.78;33.17;;;-5.50;99.90;;;;;;6189130;23;20013;-88
2022/12/13 02:04:53;;;;;;;59.45;31.48;;;-5.50;99.90;;;;;;6189397;23;20027;-87
2022/12/13 02:07:24;;;;;;;63.67;33.72;;;-5.50;99.90;;;;;;6214741;23;20035;-89
2022/12/13 02:09:52;;;;;;;60.72;31.48;;;-5.50;99.90;;;;;;6189142;23;20403;-89
2022/12/13 02:12:18;;;;;;;65.88;31.98;;;-5.50;99.90;;;;;;6189884;23;20023;-89
2022/12/13 02:14:44;;;;;;;62.67;30.13;;;-4.80;99.90;;;;;;6190465;23;20020;-88
2022/12/13 02:17:26;;;;;;;58.45;30.25;;;-5.50;99.90;;;;;;6189214;23;20083;-88
2022/12/13 02:20:06;;;;;;;51.08;28.42;;;-5.60;99.90;;;;;;6189102;23;20332;-87
2022/12/13 02:22:46;;;;;;;52.85;29.40;;;-5.70;99.90;;;;;;6189239;23;20031;-88
2022/12/13 02:25:33;;;;;;;56.63;28.83;;;-5.80;99.90;;;;;;6189190;23;20513;-88
2022/12/13 02:28:15;;;;;;;53.67;29.23;;;-5.90;99.90;;;;;;6189628;23;20016;-88
2022/12/13 02:30:45;;;;;;;64.28;30.65;;;-5.90;99.90;;;;;;6189262;23;20600;-87
2022/12/13 02:33:24;;;;;;;66.05;32.75;;;-5.90;99.90;;;;;;6214488;23;20460;-87
2022/12/13 02:36:02;;;;;;;65.15;31.15;;;-5.90;99.90;;;;;;6187980;23;20012;-88
2022/12/13 02:38:43;;;;;;;63.40;30.55;;;-4.60;99.90;;;;;;6214488;23;20095;-87
2022/12/13 02:41:24;;;;;;;62.10;31.20;;;-5.80;99.90;;;;;;6188493;23;20020;-87
2022/12/13 02:43:59;;;;;;;61.92;30.15;;;-5.80;99.90;;;;;;6213201;23;20087;-86
2022/12/13 02:46:27;;;;;;;61.30;32.28;;;-5.80;99.90;;;;;;6214801;23;20460;-87
2022/12/13 02:48:56;;;;;;;62.05;32.13;;;-5.80;99.90;;;;;;6188782;23;20012;-87
2022/12/13 02:51:23;;;;;;;66.88;34.38;;;-5.80;99.90;;;;;;6212218;23;20024;-87
2022/12/13 02:53:49;;;;;;;59.70;30.33;;;-5.80;99.90;;;;;;6188899;23;20016;-88
2022/12/13 02:56:15;;;;;;;59.30;30.65;;;-5.80;99.90;;;;;;6188529;23;20023;-87
2022/12/13 02:58:47;;;;;;;61.53;31.20;;;-5.90;99.90;;;;;;6187826;23;20016;-88
2022/12/13 03:01:32;;;;;;;61.70;30.75;;;-5.80;99.90;;;;;;6189128;23;20464;-87
2022/12/13 03:04:05;;;;;;;58.70;28.45;;;-5.80;99.90;;;;;;6213771;23;20047;-87
2022/12/13 03:06:45;;;;;;;52.70;28.20;;;-5.80;99.90;;;;;;6188369;23;20539;-87
2022/12/13 03:09:35;;;;;;;58.15;30.85;;;-5.90;99.90;;;;;;6189055;23;20016;-86
2022/12/13 03:15:02;;;;;;;53.78;29.55;;;-5.00;99.90;;;;;;6213598;23;20270;-88
2022/12/13 03:17:35;;;;;;;57.25;29.42;;;-5.90;99.90;;;;;;6189428;23;20078;-88
2022/12/13 03:20:02;;;;;;;56.65;30.40;;;-5.90;99.90;;;;;;6210991;23;20019;-87
2022/12/13 03:22:31;;;;;;;56.92;30.90;;;-5.90;99.90;;;;;;6189478;23;20024;-87
2022/12/13 03:24:57;;;;;;;55.00;30.67;;;-5.10;99.90;;;;;;6188702;23;20016;-87
2022/12/13 03:27:23;;;;;;;60.50;30.17;;;-5.90;99.90;;;;;;6213647;23;20024;-87
2022/12/13 03:29:49;;;;;;;56.75;30.98;;;-5.90;99.90;;;;;;6212938;23;20019;-86
2022/12/13 03:32:14;;;;;;;61.55;29.73;;;-5.90;99.90;;;;;;6188991;23;20102;-86
2022/12/13 03:34:40;;;;;;;68.25;29.70;;;-5.90;99.90;;;;;;6187150;23;20119;-87
2022/12/13 03:37:06;;;;;;;60.05;28.70;;;-6.00;99.90;;;;;;6188524;23;20012;-87
2022/12/13 03:39:32;;;;;;;57.30;26.75;;;-5.90;99.90;;;;;;6188067;23;20089;-87
2022/12/13 03:41:57;;;;;;;54.30;27.13;;;-6.00;99.90;;;;;;6213405;23;20389;-86
2022/12/13 03:44:23;;;;;;;51.95;28.25;;;-6.10;99.90;;;;;;6213907;23;20099;-86
2022/12/13 03:46:49;;;;;;;59.80;30.10;;;-6.10;99.90;;;;;;6212690;23;20115;-87
2022/12/13 03:49:14;;;;;;;50.95;28.67;;;-6.10;99.90;;;;;;6187097;23;20028;-87
2022/12/13 03:51:40;;;;;;;49.00;26.98;;;-6.10;99.90;;;;;;6214353;23;20028;-87
2022/12/13 03:54:06;;;;;;;54.15;27.80;;;-6.10;99.90;;;;;;6187076;23;20020;-87
2022/12/13 03:56:32;;;;;;;58.17;29.42;;;-6.10;99.90;;;;;;6188945;23;20016;-87
2022/12/13 03:58:57;;;;;;;63.95;32.38;;;-6.10;99.90;;;;;;6187983;23;20019;-88
2022/12/13 04:01:23;;;;;;;59.80;30.83;;;-6.10;99.90;;;;;;6212995;23;20016;-87
2022/12/13 04:03:49;;;;;;;55.42;29.42;;;-6.00;99.90;;;;;;6213688;23;20016;-87
2022/12/13 04:06:15;;;;;;;52.67;27.33;;;-6.10;99.90;;;;;;6187060;23;20008;-87
2022/12/13 04:08:41;;;;;;;49.53;27.00;;;-6.10;99.90;;;;;;6213345;23;20047;-87
2022/12/13 04:13:53;;;;;;;56.88;29.50;;;-6.30;99.90;;;;;;6212982;23;20024;-88
2022/12/13 04:16:19;;;;;;;59.20;30.52;;;-6.20;99.90;;;;;;6212256;23;20314;-88
2022/12/13 04:18:45;;;;;;;61.15;31.75;;;-6.10;99.90;;;;;;6188889;23;20016;-86
2022/12/13 04:21:10;;;;;;;56.83;30.15;;;-6.00;99.90;;;;;;6187093;23;20289;-87
2022/12/13 04:23:36;;;;;;;52.25;28.80;;;-6.00;99.90;;;;;;6187352;23;20027;-87
2022/12/13 04:26:02;;;;;;;55.20;29.33;;;-6.10;99.90;;;;;;6212250;23;20335;-87
2022/12/13 04:28:27;;;;;;;59.13;30.75;;;-6.10;99.90;;;;;;6189075;23;20502;-87
2022/12/13 04:30:53;;;;;;;55.80;29.10;;;-6.10;99.90;;;;;;6187521;23;20008;-87
2022/12/13 04:33:20;;;;;;;51.92;28.65;;;-6.10;99.90;;;;;;6212940;23;20067;-87
2022/12/13 04:35:46;;;;;;;51.70;26.70;;;-6.10;99.90;;;;;;6186545;23;20420;-86
2022/12/13 04:38:12;;;;;;;54.10;29.15;;;-6.10;99.90;;;;;;6212944;23;20027;-88
2022/12/13 04:40:37;;;;;;;55.40;28.40;;;-6.20;99.90;;;;;;6188361;23;20016;-87
2022/12/13 04:43:03;;;;;;;54.55;27.70;;;-6.20;99.90;;;;;;6187580;23;20020;-87
2022/12/13 04:45:29;;;;;;;52.30;27.48;;;-6.10;99.90;;;;;;6212923;23;20016;-87
2022/12/13 04:47:54;;;;;;;58.25;30.50;;;-6.10;99.90;;;;;;6213664;23;20027;-87
2022/12/13 04:50:20;;;;;;;51.20;27.13;;;-6.20;99.90;;;;;;6185717;23;20352;-87
2022/12/13 04:52:46;;;;;;;56.47;29.08;;;-6.20;99.90;;;;;;6212032;23;20412;-86
2022/12/13 04:55:12;;;;;;;54.03;29.40;;;-6.10;99.90;;;;;;6188037;23;20030;-87
2022/12/13 04:57:38;;;;;;;55.20;27.25;;;-6.10;99.90;;;;;;6212714;23;20008;-87
2022/12/13 05:00:05;;;;;;;59.83;29.05;;;-6.10;99.90;;;;;;6187423;23;20061;-87
2022/12/13 05:02:31;;;;;;;42.10;24.95;;;-6.10;99.90;;;;;;6188462;23;20483;-88
2022/12/13 05:04:56;;;;;;;53.28;26.13;;;-6.10;99.90;;;;;;6186738;23;20012;-86
2022/12/13 05:07:22;;;;;;;46.97;26.58;;;-6.10;99.90;;;;;;6213801;23;20127;-88
2022/12/13 05:09:48;;;;;;;54.17;27.38;;;-6.10;99.90;;;;;;6187563;23;20063;-87
2022/12/13 05:12:14;;;;;;;47.88;26.05;;;-6.20;99.90;;;;;;6186800;23;20065;-87
2022/12/13 05:14:39;;;;;;;45.60;24.80;;;-6.20;99.90;;;;;;6188107;23;20091;-88
2022/12/13 05:17:05;;;;;;;51.67;26.85;;;-6.20;99.90;;;;;;6187751;23;20008;-88
2022/12/13 05:19:30;;;;;;;51.13;27.20;;;-6.20;99.90;;;;;;6185156;23;20090;-87
2022/12/13 05:21:56;;;;;;;45.30;23.63;;;-6.30;99.90;;;;;;6187382;23;20009;-86
2022/12/13 05:24:22;;;;;;;44.60;23.88;;;-6.30;99.90;;;;;;6187006;23;20016;-86
2022/12/13 05:26:47;;;;;;;47.42;26.13;;;-6.40;99.90;;;;;;6186646;23;20028;-87
2022/12/13 05:29:13;;;;;;;50.33;26.95;;;-6.30;99.90;;;;;;6188097;23;20040;-87
2022/12/13 05:31:39;;;;;;;53.38;30.23;;;-6.40;99.90;;;;;;6213288;23;20012;-86
2022/12/13 05:34:04;;;;;;;55.08;27.95;;;-6.30;99.90;;;;;;6210461;23;20020;-86
2022/12/13 05:36:30;;;;;;;52.65;28.23;;;-6.30;99.90;;;;;;6212564;23;20074;-87
2022/12/13 05:38:56;;;;;;;50.53;26.77;;;-6.30;99.90;;;;;;6186705;23;20508;-86
2022/12/13 05:41:24;;;;;;;49.30;26.42;;;-7.20;99.90;;;;;;6212937;23;20012;-87
2022/12/13 05:43:50;;;;;;;47.65;25.08;;;-6.30;99.90;;;;;;6187851;23;20129;-88
2022/12/13 05:46:17;;;;;;;49.22;26.42;;;-6.30;99.90;;;;;;6186658;23;20016;-86
2022/12/13 05:48:42;;;;;;;42.80;25.02;;;-6.40;99.90;;;;;;6188368;23;20457;-87
2022/12/13 05:51:09;;;;;;;49.63;24.60;;;-6.30;99.90;;;;;;6185720;23;20020;-87
2022/12/13 05:53:35;;;;;;;46.47;24.50;;;-6.40;99.90;;;;;;6186970;23;20016;-87
2022/12/13 05:56:01;;;;;;;47.58;26.50;;;-6.40;99.90;;;;;;6211810;23;20016;-88
2022/12/13 05:58:27;;;;;;;45.85;24.33;;;-6.40;99.90;;;;;;6189083;23;20020;-88
2022/12/13 06:00:53;;;;;;;47.03;26.15;;;-6.40;99.90;;;;;;6187409;23;20012;-88
2022/12/13 06:03:19;;;;;;;44.58;24.90;;;-6.50;99.90;;;;;;6212857;23;20020;-88
2022/12/13 06:05:45;;;;;;;50.03;26.80;;;-6.50;99.90;;;;;;6212155;23;20437;-87
2022/12/13 06:08:11;;;;;;;44.33;24.98;;;-6.50;99.90;;;;;;6186612;23;20437;-87
2022/12/13 06:10:36;;;;;;;43.83;24.50;;;-6.50;99.90;;;;;;6213093;23;20449;-86
2022/12/13 06:13:03;;;;;;;45.08;25.70;;;-6.50;99.90;;;;;;6187644;23;20046;-88
2022/12/13 06:15:30;;;;;;;48.63;25.88;;;-6.60;99.90;;;;;;6186377;23;20000;-87
2022/12/13 06:17:58;;;;;;;45.55;24.88;;;-6.60;99.90;;;;;;6213040;23;20016;-87
2022/12/13 06:20:24;;;;;;;48.10;26.17;;;-6.60;99.90;;;;;;6211015;23;20009;-88
2022/12/13 06:22:52;;;;;;;49.10;25.05;;;-6.50;99.90;;;;;;6186251;23;20074;-87
2022/12/13 06:25:18;;;;;;;48.30;25.33;;;-6.50;99.90;;;;;;6188139;23;20427;-88
2022/12/13 06:27:43;;;;;;;43.25;24.27;;;-6.50;99.90;;;;;;6190533;23;20051;-87
2022/12/13 06:30:09;;;;;;;50.17;26.02;;;-6.60;99.90;;;;;;6189299;23;20019;-87
2022/12/13 06:32:35;;;;;;;47.25;25.88;;;-6.60;99.90;;;;;;6190048;23;20019;-87
2022/12/13 06:35:01;;;;;;;45.97;23.55;;;-6.60;99.90;;;;;;6188891;23;20012;-87
2022/12/13 06:37:26;;;;;;;43.70;24.88;;;-6.60;99.90;;;;;;6190203;23;20062;-87
2022/12/13 06:39:52;;;;;;;41.47;23.38;;;-6.60;99.90;;;;;;6190298;23;20322;-87
2022/12/13 06:42:18;;;;;;;41.95;25.02;;;-6.80;99.90;;;;;;6189396;23;20310;-87
2022/12/13 06:44:44;;;;;;;45.80;25.55;;;-6.80;99.90;;;;;;6189503;23;20020;-87
2022/12/13 06:47:10;;;;;;;46.88;25.52;;;-6.80;99.90;;;;;;6215185;23;20099;-86
2022/12/13 06:49:36;;;;;;;45.53;24.85;;;-6.80;99.90;;;;;;6212484;23;20026;-88
2022/12/13 06:52:01;;;;;;;43.35;25.85;;;-6.80;99.90;;;;;;6189042;23;20103;-87
2022/12/13 06:54:27;;;;;;;44.45;24.92;;;-6.80;99.90;;;;;;6190102;23;20012;-87
2022/12/13 06:56:53;;;;;;;48.78;25.45;;;-6.00;99.90;;;;;;6189877;23;20062;-87
2022/12/13 06:59:18;;;;;;;53.92;28.38;;;-6.90;99.90;;;;;;6214651;23;20023;-87
2022/12/13 07:01:44;;;;;;;51.50;28.38;;;-6.80;99.90;;;;;;6190121;23;20012;-87
2022/12/13 07:04:11;;;;;;;50.83;28.42;;;-6.70;99.90;;;;;;6189337;23;20048;-87
2022/12/13 07:06:37;;;;;;;54.22;29.42;;;-6.60;99.90;;;;;;6190092;23;20020;-87
2022/12/13 07:09:03;;;;;;;51.47;29.10;;;-6.50;99.90;;;;;;6189159;23;20150;-88
2022/12/13 07:11:31;;;;;;;57.03;32.38;;;-6.50;99.90;;;;;;6189906;23;20020;-87
2022/12/13 07:13:58;;;;;;;60.65;31.30;;;-5.60;99.90;;;;;;6189232;23;20020;-86
2022/12/13 07:16:25;;;;;;;60.15;33.63;;;-6.20;99.90;;;;;;6215664;23;20035;-88
2022/12/13 07:18:56;;;;;;;73.80;31.77;;;-6.20;99.90;;;;;;6189313;23;20428;-87
2022/12/13 07:21:22;;;;;;;59.13;30.27;;;-6.10;99.90;;;;;;6188527;23;20008;-88
2022/12/13 07:23:49;;;;;;;50.78;27.65;;;-6.10;99.90;;;;;;6190053;23;20107;-87
2022/12/13 07:26:15;;;;;;;51.95;28.88;;;-6.10;99.90;;;;;;6189065;23;20419;-88
2022/12/13 07:28:41;;;;;;;53.53;29.20;;;-6.20;99.90;;;;;;6191726;23;20059;-88
2022/12/13 07:31:08;;;;;;;58.45;29.88;;;-6.20;99.90;;;;;;6188449;23;20012;-88
2022/12/13 07:33:35;;;;;;;52.08;29.33;;;-6.10;99.90;;;;;;6189090;23;20024;-88
2022/12/13 07:36:02;;;;;;;57.47;30.55;;;-6.10;99.90;;;;;;6190070;23;20471;-87
2022/12/13 07:38:28;;;;;;;53.40;28.67;;;-6.10;99.90;;;;;;6188550;23;20452;-89
2022/12/13 07:40:56;;;;;;;55.70;30.52;;;-6.10;99.90;;;;;;6187203;23;20042;-88
2022/12/13 07:43:23;;;;;;;55.35;30.05;;;-6.10;99.90;;;;;;6212751;23;20086;-88
2022/12/13 07:45:48;;;;;;;52.33;28.50;;;-6.00;99.90;;;;;;6187607;23;20024;-85
2022/12/13 07:48:14;;;;;;;56.80;28.25;;;-6.10;99.90;;;;;;6188222;23;20018;-87
2022/12/13 07:50:40;;;;;;;54.92;27.67;;;-6.00;99.90;;;;;;6188661;23;20099;-87
2022/12/13 07:53:07;;;;;;;50.83;27.65;;;-6.10;99.90;;;;;;6186617;23;20113;-86
2022/12/13 07:55:34;;;;;;;52.38;27.27;;;-6.20;99.90;;;;;;6216018;23;20031;-88
2022/12/13 07:58:05;;;;;;;47.15;25.83;;;-6.20;99.90;;;;;;6214225;23;20074;-88
2022/12/13 08:00:31;;;;;;;42.72;25.60;;;-5.60;99.90;;;;;;6188843;23;20012;-87
2022/12/13 08:02:56;;;;;;;50.03;26.63;;;-6.20;99.90;;;;;;6189864;23;20505;-89
2022/12/13 08:05:23;;;;;;;45.53;26.25;;;-5.70;99.90;;;;;;6188709;23;20013;-89
2022/12/13 08:07:49;;;;;;;49.92;26.63;;;-6.20;99.90;;;;;;6189211;23;20020;-89
2022/12/13 08:10:15;;;;;;;53.00;27.45;;;-6.30;99.90;;;;;;6189992;23;20023;-88
2022/12/13 08:12:40;;;;;;;49.30;26.17;;;-5.20;99.90;;;;;;6215342;23;20032;-87
2022/12/13 08:15:06;;;;;;;47.58;27.65;;;-6.30;99.90;;;;;;6187432;23;20065;-89
2022/12/13 08:17:33;;;;;;;54.53;30.00;;;-6.30;99.90;;;;;;6189970;23;20024;-89
2022/12/13 08:19:58;;;;;;;50.20;28.70;;;-6.20;99.90;;;;;;6188940;23;20062;-86
2022/12/13 08:22:24;;;;;;;58.92;30.00;;;-5.30;99.90;;;;;;6215517;22;20012;-89
2022/12/13 08:24:50;;;;;;;54.08;29.63;;;-6.00;99.90;;;;;;6189037;23;20023;-88
2022/12/13 08:27:16;;;;;;;51.90;29.05;;;-6.00;99.90;;;;;;6217809;23;20023;-89
2022/12/13 08:29:42;;;;;;;59.22;31.15;;;-6.00;99.90;;;;;;6216091;23;20008;-91
2022/12/13 08:32:10;;;;;;;57.50;31.42;;;-5.90;99.90;;;;;;6190057;23;20452;-88
2022/12/13 08:34:36;;;;;;;49.72;28.85;;;-5.90;99.90;;;;;;6213464;23;20020;-88
2022/12/13 08:37:02;;;;;;;52.40;28.77;;;-5.90;99.90;;;;;;6188669;23;20540;-89
2022/12/13 08:39:30;;;;;;;54.85;27.58;;;-5.80;99.90;;;;;;6189270;23;20475;-88
2022/12/13 08:41:55;;;;;;;54.17;28.55;;;-5.80;99.90;;;;;;6190355;23;20030;-88
2022/12/13 08:44:21;;;;;;;51.45;29.05;;;-5.80;99.90;;;;;;6188976;23;20095;-88
2022/12/13 08:46:47;;;;;;;50.50;27.63;;;-5.80;99.90;;;;;;6188990;23;20048;-88
2022/12/13 08:49:12;;;;;;;48.88;27.63;;;-5.70;99.90;;;;;;6212337;23;20020;-91
2022/12/13 08:51:38;;;;;;;63.33;29.90;;;-4.70;99.90;;;;;;6189480;23;20016;-90
2022/12/13 08:54:04;;;;;;;54.95;30.15;;;-5.60;99.90;;;;;;6188502;23;20103;-89
2022/12/13 08:56:29;;;;;;;55.13;28.77;;;-5.00;99.90;;;;;;6188621;23;20012;-88
2022/12/13 08:58:55;;;;;;;48.88;27.48;;;-5.50;99.90;;;;;;6189177;23;20027;-89
2022/12/13 09:01:20;;;;;;;59.92;30.48;;;-5.40;99.90;;;;;;6188976;23;20016;-89
2022/12/13 09:03:46;;;;;;;62.08;32.15;;;-5.40;99.90;;;;;;6188317;23;20026;-89
2022/12/13 09:06:15;;;;;;;62.85;33.10;;;-5.30;99.90;;;;;;6188398;23;20020;-89
2022/12/13 09:08:41;;;;;;;63.97;33.10;;;-5.20;99.90;;;;;;6189775;23;20024;-90
2022/12/13 09:11:08;;;;;;;54.90;31.02;;;-4.20;99.90;;;;;;6212639;23;20065;-89
2022/12/13 09:13:36;;;;;;;60.47;33.40;;;-4.40;99.90;;;;;;6189284;23;20020;-90
2022/12/13 09:16:05;;;;;;;59.70;32.13;;;-5.10;99.90;;;;;;6188930;23;20023;-90
2022/12/13 09:18:31;;;;;;;64.20;32.25;;;-5.00;99.90;;;;;;6189322;23;20004;-90
2022/12/13 09:20:56;;;;;;;66.25;32.88;;;-4.90;99.90;;;;;;6188424;23;20023;-89
2022/12/13 09:23:23;;;;;;;58.03;31.63;;;-4.90;99.90;;;;;;6189306;23;20020;-90
2022/12/13 09:25:54;;;;;;;58.03;33.38;;;-4.60;99.90;;;;;;6187875;23;20020;-90
2022/12/13 09:28:20;;;;;;;64.85;34.72;;;-4.00;99.90;;;;;;6189031;23;20016;-89
2022/12/13 09:30:46;;;;;;;61.63;32.42;;;-4.70;99.90;;;;;;6188653;23;20016;-89
2022/12/13 09:33:12;;;;;;;68.93;34.10;;;-4.80;99.90;;;;;;6188861;23;20437;-89
2022/12/13 09:35:38;;;;;;;59.40;32.45;;;-4.70;99.90;;;;;;6215443;23;20050;-90
2022/12/13 09:38:03;;;;;;;58.67;33.53;;;-4.70;99.90;;;;;;6188003;23;20120;-90
2022/12/13 09:40:30;;;;;;;65.13;33.67;;;-4.70;99.90;;;;;;6188953;23;20018;-90
2022/12/13 09:42:56;;;;;;;67.72;33.35;;;-4.70;99.90;;;;;;6189053;23;20099;-89
2022/12/13 09:45:23;;;;;;;67.82;35.65;;;-2.90;99.90;;;;;;6188330;23;20487;-89
2022/12/13 09:47:51;;;;;;;62.10;33.70;;;-3.80;99.90;;;;;;6189443;23;20059;-89
2022/12/13 09:50:31;;;;;;;74.10;35.65;;;-4.40;99.90;;;;;;6189350;23;20020;-90
2022/12/13 09:53:00;;;;;;;66.78;33.45;;;-4.30;99.90;;;;;;6187401;23;20019;-90
2022/12/13 09:55:28;;;;;;;71.10;35.20;;;-3.20;99.90;;;;;;6189381;23;20023;-90
2022/12/13 09:57:54;;;;;;;73.45;35.20;;;-3.70;99.90;;;;;;6188427;23;20023;-91
2022/12/13 10:00:24;;;;;;;71.88;35.60;;;-4.10;99.90;;;;;;6215189;23;20266;-90
2022/12/13 10:02:55;;;;;;;74.53;36.20;;;-2.60;99.90;;;;;;6191095;23;20073;-91
2022/12/13 10:05:28;;;;;;;70.75;34.40;;;-3.90;99.90;;;;;;6190750;23;20099;-91
2022/12/13 10:07:57;;;;;;;63.38;34.63;;;-3.80;99.90;;;;;;6190952;23;20020;-90
2022/12/13 10:10:23;;;;;;;71.38;34.97;;;-2.80;99.90;;;;;;6193034;23;20027;-92
2022/12/13 10:13:00;;;;;;;77.80;36.25;;;-3.10;99.90;;;;;;6191541;23;20472;-92
2022/12/13 10:15:27;;;;;;;76.60;37.25;;;-3.70;99.90;;;;;;6215676;23;20073;-91
2022/12/13 10:17:53;;;;;;;70.53;35.70;;;-3.60;99.90;;;;;;6191436;23;20091;-91
2022/12/13 10:20:20;;;;;;;68.68;36.53;;;-3.60;99.90;;;;;;6190805;23;20526;-91
2022/12/13 10:22:47;;;;;;;68.13;35.30;;;-2.50;99.90;;;;;;6192108;23;20012;-90
2022/12/13 10:25:13;;;;;;;72.00;36.65;;;-3.60;99.90;;;;;;6190961;23;20035;-92
2022/12/13 10:27:42;;;;;;;72.15;37.17;;;-3.00;99.90;;;;;;6190651;23;20130;-91
2022/12/13 10:30:12;;;;;;;68.55;34.25;;;-2.50;99.90;;;;;;6190259;23;20028;-92
2022/12/13 10:32:58;;;;;;;70.43;36.58;;;-3.30;99.90;;;;;;6191711;23;20016;-92
2022/12/13 10:35:27;;;;;;;70.75;38.00;;;-3.30;99.90;;;;;;6190430;23;20094;-92
2022/12/13 10:37:55;;;;;;;65.57;36.30;;;-3.20;99.90;;;;;;6192658;23;20019;-92
2022/12/13 10:40:29;;;;;;;78.45;37.10;;;-2.90;99.90;;;;;;6190876;23;20020;-92
2022/12/13 10:43:22;;;;;;;70.43;35.88;;;-3.00;99.90;;;;;;6189448;23;20471;-91
2022/12/13 10:45:54;;;;;;;;;;;-2.70;99.90;;;;;;6191179;23;20016;-91
2022/12/13 10:48:32;;;;;;;74.38;37.83;;;-2.90;99.90;;;;;;6217101;23;20383;-92
2022/12/13 10:51:00;;;;;;;69.35;35.70;;;-2.90;99.90;;;;;;6189266;23;20024;-92
2022/12/13 10:53:31;;;;;;;69.35;34.42;;;-2.80;99.90;;;;;;6191030;23;20016;-91
2022/12/13 10:55:58;;;;;;;66.85;37.03;;;-1.90;99.90;;;;;;6189690;23;20020;-92
2022/12/13 10:58:35;;;;;;;75.35;37.83;;;-1.70;99.90;;;;;;6190837;23;20031;-90
2022/12/13 11:01:10;;;;;;;65.55;34.70;;;-2.50;99.90;;;;;;6215398;23;20328;-91
2022/12/13 11:03:35;;;;;;;69.15;36.08;;;-2.50;99.90;;;;;;6189381;23;20344;-90
2022/12/13 11:06:08;;;;;;;69.68;35.88;;;-2.00;99.90;;;;;;6189497;23;20059;-91
2022/12/13 11:08:34;;;;;;;78.22;36.70;;;-2.50;99.90;;;;;;6190545;23;20023;-91
2022/12/13 11:11:02;;;;;;;67.45;36.30;;;-2.40;99.90;;;;;;6189046;23;20012;-92
2022/12/13 11:13:46;;;;;;;64.32;35.92;;;-2.30;99.90;;;;;;6190648;23;20098;-92
2022/12/13 11:16:29;;;;;;;68.30;36.03;;;-2.20;99.90;;;;;;6190020;23;20105;-92
2022/12/13 11:18:59;;;;;;;69.65;35.33;;;-1.70;99.90;;;;;;6190226;23;20012;-92
2022/12/13 11:21:27;;;;;;;67.43;34.10;;;-2.20;99.90;;;;;;6189865;23;20008;-92
2022/12/13 11:23:56;;;;;;;69.65;35.85;;;-1.60;99.90;;;;;;6214372;23;20426;-91
2022/12/13 11:26:23;;;;;;;66.32;36.35;;;-2.10;99.90;;;;;;6192997;23;20054;-92
2022/12/13 11:28:59;;;;;;;64.18;34.45;;;-2.10;99.90;;;;;;6190432;23;20012;-93
2022/12/13 11:31:52;;;;;;;59.33;33.03;;;-2.00;99.90;;;;;;6189383;23;20531;-92
2022/12/13 11:34:27;;;;;;;63.50;35.72;;;-1.90;99.90;;;;;;6189569;23;20027;-93
2022/12/13 11:37:10;;;;;;;64.10;34.03;;;-1.80;99.90;;;;;;6189448;23;20028;-93
2022/12/13 11:39:41;;;;;;;57.60;32.85;;;-1.80;99.90;;;;;;6189451;23;20021;-91
2022/12/13 11:42:21;;;;;;;58.22;32.67;;;-0.60;99.90;;;;;;6189492;23;20074;-92
2022/12/13 11:44:47;;;;;;;62.35;32.30;;;-1.60;99.90;;;;;;6188556;23;20020;-93
2022/12/13 11:47:20;;;;;;;57.13;29.83;;;-1.50;99.90;;;;;;6190809;23;20024;-93
2022/12/13 11:49:48;;;;;;;53.13;29.42;;;-1.00;99.90;;;;;;6189275;23;20024;-94
2022/12/13 11:52:34;;;;;;;58.75;31.20;;;-1.20;99.90;;;;;;6190628;23;20020;-91
2022/12/13 11:55:05;;;;;;;50.53;28.58;;;-1.30;99.90;;;;;;6190524;23;20070;-92
2022/12/13 11:57:50;;;;;;;50.40;28.00;;;-0.70;99.90;;;;;;6191222;23;20035;-93
2022/12/13 12:00:30;;;;;;;49.17;29.10;;;-1.10;99.90;;;;;;6191828;23;20146;-92
2022/12/13 12:03:08;;;;;;;51.20;26.77;;;-1.10;99.90;;;;;;6191340;23;20087;-92
2022/12/13 12:05:37;;;;;;;43.35;25.88;;;-1.10;99.90;;;;;;6191535;23;20060;-91
2022/12/13 12:08:16;;;;;;;43.08;25.85;;;0.10;99.90;;;;;;6190732;23;20020;-92
2022/12/13 12:10:45;;;;;;;43.92;25.75;;;0.00;99.90;;;;;;6191001;23;20463;-92
2022/12/13 12:13:24;;;;;;;43.40;26.50;;;-0.10;99.90;;;;;;6191264;23;20344;-91
2022/12/13 12:16:05;;;;;;;45.47;25.98;;;0.00;99.90;;;;;;6190817;23;20012;-90
2022/12/13 12:18:32;;;;;;;44.15;26.30;;;-0.80;99.90;;;;;;6190657;23;20074;-90
2022/12/13 12:21:07;;;;;;;42.13;24.80;;;0.50;99.90;;;;;;6186857;23;20399;-90
2022/12/13 12:23:58;;;;;;;43.45;24.05;;;-0.70;99.90;;;;;;6189485;23;20016;-91
2022/12/13 12:26:35;;;;;;;36.40;21.45;;;-0.60;99.90;;;;;;6190265;23;20066;-90
2022/12/13 12:29:25;;;;;;;35.85;21.67;;;-0.10;99.90;;;;;;6188029;23;20027;-90
2022/12/13 12:32:06;;;;;;;29.73;19.13;;;-0.60;99.90;;;;;;6188696;23;20016;-91
2022/12/13 12:34:32;;;;;;;38.15;22.50;;;-0.50;99.90;;;;;;6188043;23;20020;-91
2022/12/13 12:37:07;;;;;;;32.17;19.70;;;-0.30;99.90;;;;;;6188476;23;20177;-91
2022/12/13 12:39:55;;;;;;;37.72;19.25;;;-0.50;99.90;;;;;;6188915;23;20020;-91
2022/12/13 12:42:34;;;;;;;29.52;18.70;;;-0.50;99.90;;;;;;6188438;23;20016;-92